sensor_id;sensor_type;location;lat;lon;timestamp;pressure;altitude;pressure_sealevel;temperature;humidity
45731;BME280;31440;48.584;13.460;2023-05-02T00:00:49;96810.13;;;12.00;100.00
45731;BME280;31440;48.584;13.460;2023-05-02T00:03:54;96800.22;;;12.08;100.00
45731;BME280;31440;48.584;13.460;2023-05-02T00:06:59;96799.72;;;11.78;100.00
45731;BME280;31440;48.584;13.460;2023-05-02T00:10:03;96808.59;;;11.29;100.00
45731;BME280;31440;48.584;13.460;2023-05-02T00:13:09;96803.00;;;11.83;100.00
45731;BME280;31440;48.584;13.460;2023-05-02T00:16:13;96805.09;;;11.74;100.00
45731;BME280;31440;48.584;13.460;2023-05-02T00:19:18;96797.63;;;12.08;100.00
45731;BME280;31440;48.584;13.460;2023-05-02T00:22:23;96795.53;;;12.18;100.00
45731;BME280;31440;48.584;13.460;2023-05-02T00:25:27;96806.94;;;12.14;100.00
45731;BME280;31440;48.584;13.460;2023-05-02T00:31:39;96805.22;;;11.93;100.00
45731;BME280;31440;48.584;13.460;2023-05-02T00:34:44;96802.19;;;12.03;100.00
45731;BME280;31440;48.584;13.460;2023-05-02T00:37:49;96802.09;;;11.41;100.00
45731;BME280;31440;48.584;13.460;2023-05-02T00:40:53;96799.50;;;11.84;100.00
45731;BME280;31440;48.584;13.460;2023-05-02T00:43:58;96771.91;;;11.15;100.00
45731;BME280;31440;48.584;13.460;2023-05-02T00:47:03;96797.91;;;11.80;100.00
45731;BME280;31440;48.584;13.460;2023-05-02T00:50:07;96799.44;;;11.64;100.00
45731;BME280;31440;48.584;13.460;2023-05-02T00:53:12;96798.91;;;11.34;100.00
45731;BME280;31440;48.584;13.460;2023-05-02T00:56:16;96801.69;;;11.51;100.00
45731;BME280;31440;48.584;13.460;2023-05-02T00:59:21;96805.81;;;11.12;100.00
45731;BME280;31440;48.584;13.460;2023-05-02T01:05:48;96803.03;;;11.16;100.00
45731;BME280;31440;48.584;13.460;2023-05-02T01:09:04;96808.88;;;11.22;100.00
45731;BME280;31440;48.584;13.460;2023-05-02T01:12:40;96811.22;;;11.29;100.00
45731;BME280;31440;48.584;13.460;2023-05-02T01:15:46;96813.88;;;11.49;100.00
45731;BME280;31440;48.584;13.460;2023-05-02T01:18:53;96810.88;;;11.15;100.00
45731;BME280;31440;48.584;13.460;2023-05-02T01:25:30;96809.00;;;11.64;100.00
45731;BME280;31440;48.584;13.460;2023-05-02T01:28:50;96801.88;;;11.24;100.00
45731;BME280;31440;48.584;13.460;2023-05-02T01:31:57;96813.19;;;11.23;100.00
45731;BME280;31440;48.584;13.460;2023-05-02T01:35:04;96800.59;;;11.12;100.00
45731;BME280;31440;48.584;13.460;2023-05-02T01:38:13;96821.94;;;11.65;100.00
45731;BME280;31440;48.584;13.460;2023-05-02T01:41:19;96818.63;;;11.38;100.00
45731;BME280;31440;48.584;13.460;2023-05-02T01:44:26;96817.69;;;11.41;100.00
45731;BME280;31440;48.584;13.460;2023-05-02T01:47:34;96819.84;;;11.06;100.00
45731;BME280;31440;48.584;13.460;2023-05-02T01:50:40;96826.44;;;11.38;100.00
45731;BME280;31440;48.584;13.460;2023-05-02T01:56:55;96825.94;;;11.29;100.00
45731;BME280;31440;48.584;13.460;2023-05-02T02:00:01;96829.66;;;11.45;100.00
45731;BME280;31440;48.584;13.460;2023-05-02T02:03:16;96830.47;;;11.24;100.00
45731;BME280;31440;48.584;13.460;2023-05-02T02:06:22;96831.09;;;11.07;100.00
45731;BME280;31440;48.584;13.460;2023-05-02T02:09:27;96829.44;;;11.51;100.00
45731;BME280;31440;48.584;13.460;2023-05-02T02:12:39;96837.22;;;11.51;100.00
45731;BME280;31440;48.584;13.460;2023-05-02T02:15:49;96832.72;;;11.55;100.00
45731;BME280;31440;48.584;13.460;2023-05-02T02:19:06;96835.22;;;11.36;100.00
45731;BME280;31440;48.584;13.460;2023-05-02T02:22:12;96824.63;;;10.95;100.00
45731;BME280;31440;48.584;13.460;2023-05-02T02:25:19;96837.25;;;11.28;100.00
45731;BME280;31440;48.584;13.460;2023-05-02T02:28:24;96835.28;;;11.11;100.00
45731;BME280;31440;48.584;13.460;2023-05-02T02:31:35;96842.53;;;11.01;100.00
45731;BME280;31440;48.584;13.460;2023-05-02T02:34:41;96833.22;;;11.42;100.00
45731;BME280;31440;48.584;13.460;2023-05-02T02:38:13;96847.75;;;11.01;100.00
45731;BME280;31440;48.584;13.460;2023-05-02T02:41:26;96844.09;;;11.07;100.00
45731;BME280;31440;48.584;13.460;2023-05-02T02:44:55;96841.38;;;11.33;100.00
45731;BME280;31440;48.584;13.460;2023-05-02T02:51:47;96852.59;;;11.79;100.00
45731;BME280;31440;48.584;13.460;2023-05-02T02:55:06;96851.56;;;11.83;100.00
45731;BME280;31440;48.584;13.460;2023-05-02T03:01:43;96856.97;;;11.55;100.00
45731;BME280;31440;48.584;13.460;2023-05-02T03:04:50;96854.00;;;11.19;100.00
45731;BME280;31440;48.584;13.460;2023-05-02T03:07:58;96854.75;;;11.23;100.00
45731;BME280;31440;48.584;13.460;2023-05-02T03:11:04;96864.81;;;11.08;100.00
45731;BME280;31440;48.584;13.460;2023-05-02T03:14:08;96870.44;;;11.20;100.00
45731;BME280;31440;48.584;13.460;2023-05-02T03:17:13;96876.25;;;11.03;100.00
45731;BME280;31440;48.584;13.460;2023-05-02T03:20:18;96876.34;;;11.25;100.00
45731;BME280;31440;48.584;13.460;2023-05-02T03:23:24;96880.25;;;11.13;100.00
45731;BME280;31440;48.584;13.460;2023-05-02T03:26:30;96880.09;;;11.18;100.00
45731;BME280;31440;48.584;13.460;2023-05-02T03:29:36;96882.97;;;10.85;100.00
45731;BME280;31440;48.584;13.460;2023-05-02T03:32:41;96885.03;;;11.47;100.00
45731;BME280;31440;48.584;13.460;2023-05-02T03:35:46;96891.47;;;11.13;100.00
45731;BME280;31440;48.584;13.460;2023-05-02T03:38:54;96871.66;;;11.11;100.00
45731;BME280;31440;48.584;13.460;2023-05-02T03:42:00;96886.50;;;11.31;100.00
45731;BME280;31440;48.584;13.460;2023-05-02T03:45:06;96901.06;;;11.58;100.00
45731;BME280;31440;48.584;13.460;2023-05-02T03:48:11;96898.19;;;11.42;100.00
45731;BME280;31440;48.584;13.460;2023-05-02T03:51:16;96895.88;;;11.11;100.00
45731;BME280;31440;48.584;13.460;2023-05-02T03:57:32;96898.97;;;10.98;100.00
45731;BME280;31440;48.584;13.460;2023-05-02T04:00:37;96902.66;;;11.39;100.00
45731;BME280;31440;48.584;13.460;2023-05-02T04:03:44;96903.81;;;11.32;100.00
45731;BME280;31440;48.584;13.460;2023-05-02T04:06:51;96918.00;;;11.22;100.00
45731;BME280;31440;48.584;13.460;2023-05-02T04:09:56;96918.00;;;10.47;100.00
45731;BME280;31440;48.584;13.460;2023-05-02T04:16:09;96901.19;;;10.59;100.00
45731;BME280;31440;48.584;13.460;2023-05-02T04:19:16;96928.31;;;11.48;100.00
45731;BME280;31440;48.584;13.460;2023-05-02T04:22:21;96931.28;;;11.37;100.00
45731;BME280;31440;48.584;13.460;2023-05-02T04:25:30;96930.13;;;11.46;100.00
45731;BME280;31440;48.584;13.460;2023-05-02T04:28:38;96942.34;;;11.44;100.00
45731;BME280;31440;48.584;13.460;2023-05-02T04:31:43;96943.41;;;11.62;100.00
45731;BME280;31440;48.584;13.460;2023-05-02T04:34:50;96942.75;;;11.78;100.00
45731;BME280;31440;48.584;13.460;2023-05-02T04:37:54;96955.69;;;11.35;100.00
45731;BME280;31440;48.584;13.460;2023-05-02T04:41:00;96954.44;;;11.45;100.00
45731;BME280;31440;48.584;13.460;2023-05-02T04:44:17;96961.53;;;11.86;100.00
45731;BME280;31440;48.584;13.460;2023-05-02T04:47:22;96962.44;;;11.85;100.00
45731;BME280;31440;48.584;13.460;2023-05-02T04:50:27;96968.19;;;11.72;100.00
45731;BME280;31440;48.584;13.460;2023-05-02T04:53:32;96969.66;;;12.24;100.00
45731;BME280;31440;48.584;13.460;2023-05-02T04:56:36;96976.22;;;12.54;100.00
45731;BME280;31440;48.584;13.460;2023-05-02T04:59:41;96979.97;;;12.47;100.00
45731;BME280;31440;48.584;13.460;2023-05-02T05:02:46;96978.16;;;12.71;100.00
45731;BME280;31440;48.584;13.460;2023-05-02T05:05:54;96968.63;;;12.05;100.00
45731;BME280;31440;48.584;13.460;2023-05-02T05:09:00;96990.88;;;12.79;100.00
45731;BME280;31440;48.584;13.460;2023-05-02T05:12:04;96996.84;;;12.81;100.00
45731;BME280;31440;48.584;13.460;2023-05-02T05:15:11;96994.69;;;12.27;100.00
45731;BME280;31440;48.584;13.460;2023-05-02T05:18:19;97000.09;;;11.99;100.00
45731;BME280;31440;48.584;13.460;2023-05-02T05:21:24;96998.75;;;12.10;100.00
45731;BME280;31440;48.584;13.460;2023-05-02T05:24:31;97000.72;;;11.35;100.00
45731;BME280;31440;48.584;13.460;2023-05-02T05:30:42;97009.00;;;11.70;100.00
45731;BME280;31440;48.584;13.460;2023-05-02T05:36:59;97020.44;;;11.64;100.00
45731;BME280;31440;48.584;13.460;2023-05-02T05:40:06;97017.22;;;12.04;100.00
45731;BME280;31440;48.584;13.460;2023-05-02T05:43:11;97021.28;;;12.11;100.00
45731;BME280;31440;48.584;13.460;2023-05-02T05:46:16;97017.34;;;12.01;100.00
45731;BME280;31440;48.584;13.460;2023-05-02T05:49:20;97019.09;;;12.24;100.00
45731;BME280;31440;48.584;13.460;2023-05-02T05:52:25;97025.44;;;12.17;100.00
45731;BME280;31440;48.584;13.460;2023-05-02T05:55:31;97025.38;;;12.62;100.00
45731;BME280;31440;48.584;13.460;2023-05-02T05:58:38;97030.47;;;12.65;100.00
45731;BME280;31440;48.584;13.460;2023-05-02T06:01:43;97033.47;;;12.98;100.00
45731;BME280;31440;48.584;13.460;2023-05-02T06:04:49;97037.75;;;12.35;100.00
45731;BME280;31440;48.584;13.460;2023-05-02T06:07:57;97048.34;;;12.07;100.00
45731;BME280;31440;48.584;13.460;2023-05-02T06:11:07;97043.03;;;12.77;100.00
45731;BME280;31440;48.584;13.460;2023-05-02T06:14:13;97031.03;;;12.73;100.00
45731;BME280;31440;48.584;13.460;2023-05-02T06:17:18;97052.38;;;13.03;100.00
45731;BME280;31440;48.584;13.460;2023-05-02T06:20:23;97068.44;;;12.93;100.00
45731;BME280;31440;48.584;13.460;2023-05-02T06:23:27;97068.81;;;12.40;100.00
45731;BME280;31440;48.584;13.460;2023-05-02T06:26:32;97072.09;;;12.67;100.00
45731;BME280;31440;48.584;13.460;2023-05-02T06:29:36;97072.09;;;12.67;100.00
45731;BME280;31440;48.584;13.460;2023-05-02T06:32:41;97078.69;;;12.75;100.00
45731;BME280;31440;48.584;13.460;2023-05-02T06:35:51;97087.97;;;12.61;100.00
45731;BME280;31440;48.584;13.460;2023-05-02T06:38:56;97090.56;;;12.15;100.00
45731;BME280;31440;48.584;13.460;2023-05-02T06:42:01;97091.03;;;12.02;100.00
45731;BME280;31440;48.584;13.460;2023-05-02T06:45:06;97090.22;;;12.25;100.00
45731;BME280;31440;48.584;13.460;2023-05-02T06:48:11;97090.81;;;13.18;100.00
45731;BME280;31440;48.584;13.460;2023-05-02T06:51:15;97093.03;;;12.85;100.00
45731;BME280;31440;48.584;13.460;2023-05-02T06:57:26;97096.25;;;12.92;100.00
45731;BME280;31440;48.584;13.460;2023-05-02T07:00:31;97084.59;;;13.01;100.00
45731;BME280;31440;48.584;13.460;2023-05-02T07:03:36;97103.22;;;13.13;100.00
45731;BME280;31440;48.584;13.460;2023-05-02T07:06:40;97091.63;;;12.99;100.00
45731;BME280;31440;48.584;13.460;2023-05-02T07:09:45;97100.84;;;13.07;100.00
45731;BME280;31440;48.584;13.460;2023-05-02T07:12:49;97106.06;;;12.42;100.00
45731;BME280;31440;48.584;13.460;2023-05-02T07:15:54;97103.69;;;13.23;100.00
45731;BME280;31440;48.584;13.460;2023-05-02T07:18:59;97105.22;;;13.07;100.00
45731;BME280;31440;48.584;13.460;2023-05-02T07:22:04;97104.28;;;13.30;100.00
45731;BME280;31440;48.584;13.460;2023-05-02T07:28:15;97109.31;;;12.47;100.00
45731;BME280;31440;48.584;13.460;2023-05-02T07:31:20;97103.22;;;12.70;100.00
45731;BME280;31440;48.584;13.460;2023-05-02T07:34:24;97098.47;;;13.23;100.00
45731;BME280;31440;48.584;13.460;2023-05-02T07:37:32;97097.66;;;13.83;100.00
45731;BME280;31440;48.584;13.460;2023-05-02T07:40:38;97100.38;;;13.40;100.00
45731;BME280;31440;48.584;13.460;2023-05-02T07:43:42;97096.34;;;13.33;100.00
45731;BME280;31440;48.584;13.460;2023-05-02T07:46:47;97103.06;;;13.79;100.00
45731;BME280;31440;48.584;13.460;2023-05-02T07:49:52;97105.53;;;14.02;100.00
45731;BME280;31440;48.584;13.460;2023-05-02T07:56:04;97107.25;;;13.20;100.00
45731;BME280;31440;48.584;13.460;2023-05-02T07:59:12;97103.63;;;13.24;100.00
45731;BME280;31440;48.584;13.460;2023-05-02T08:02:17;97090.41;;;14.09;100.00
45731;BME280;31440;48.584;13.460;2023-05-02T08:05:23;97112.28;;;14.06;100.00
45731;BME280;31440;48.584;13.460;2023-05-02T08:08:28;97111.34;;;14.46;100.00
45731;BME280;31440;48.584;13.460;2023-05-02T08:11:32;97111.31;;;13.88;100.00
45731;BME280;31440;48.584;13.460;2023-05-02T08:14:37;97104.81;;;14.75;100.00
45731;BME280;31440;48.584;13.460;2023-05-02T08:17:42;97118.88;;;14.34;100.00
45731;BME280;31440;48.584;13.460;2023-05-02T08:20:46;97109.25;;;14.73;100.00
45731;BME280;31440;48.584;13.460;2023-05-02T08:23:56;97119.19;;;14.65;100.00
45731;BME280;31440;48.584;13.460;2023-05-02T08:27:01;97125.34;;;14.06;100.00
45731;BME280;31440;48.584;13.460;2023-05-02T08:33:14;97125.81;;;13.96;100.00
45731;BME280;31440;48.584;13.460;2023-05-02T08:36:19;97126.25;;;13.66;100.00
45731;BME280;31440;48.584;13.460;2023-05-02T08:39:24;97126.88;;;13.51;100.00
45731;BME280;31440;48.584;13.460;2023-05-02T08:42:32;97122.41;;;14.33;100.00
45731;BME280;31440;48.584;13.460;2023-05-02T08:45:41;97134.50;;;14.35;100.00
45731;BME280;31440;48.584;13.460;2023-05-02T08:48:47;97129.75;;;13.45;100.00
45731;BME280;31440;48.584;13.460;2023-05-02T08:55:00;97142.47;;;14.32;100.00
45731;BME280;31440;48.584;13.460;2023-05-02T08:58:07;97145.69;;;14.57;96.30
45731;BME280;31440;48.584;13.460;2023-05-02T09:01:15;97157.31;;;15.07;99.11
45731;BME280;31440;48.584;13.460;2023-05-02T09:04:22;97158.44;;;14.82;99.16
45731;BME280;31440;48.584;13.460;2023-05-02T09:07:29;97116.59;;;14.65;97.30
45731;BME280;31440;48.584;13.460;2023-05-02T09:10:34;97165.22;;;15.05;94.77
45731;BME280;31440;48.584;13.460;2023-05-02T09:13:44;97148.72;;;14.67;97.10
45731;BME280;31440;48.584;13.460;2023-05-02T09:16:49;97171.59;;;14.81;94.31
45731;BME280;31440;48.584;13.460;2023-05-02T09:19:59;97170.66;;;15.37;94.08
45731;BME280;31440;48.584;13.460;2023-05-02T09:23:05;97164.75;;;15.14;97.77
45731;BME280;31440;48.584;13.460;2023-05-02T09:29:18;97177.00;;;15.14;92.81
45731;BME280;31440;48.584;13.460;2023-05-02T09:32:43;97182.81;;;15.38;89.37
45731;BME280;31440;48.584;13.460;2023-05-02T09:35:53;97183.41;;;15.61;90.89
45731;BME280;31440;48.584;13.460;2023-05-02T09:39:10;97183.38;;;15.80;85.59
45731;BME280;31440;48.584;13.460;2023-05-02T09:42:29;97193.28;;;15.38;84.38
45731;BME280;31440;48.584;13.460;2023-05-02T09:45:36;97150.88;;;15.48;90.61
45731;BME280;31440;48.584;13.460;2023-05-02T09:48:54;97185.91;;;15.99;84.13
45731;BME280;31440;48.584;13.460;2023-05-02T09:52:18;97189.38;;;15.46;87.25
45731;BME280;31440;48.584;13.460;2023-05-02T09:55:24;97197.84;;;15.51;88.80
45731;BME280;31440;48.584;13.460;2023-05-02T09:58:29;97196.03;;;15.35;90.18
45731;BME280;31440;48.584;13.460;2023-05-02T10:01:34;97199.25;;;15.22;93.35
45731;BME280;31440;48.584;13.460;2023-05-02T10:07:45;97203.53;;;14.87;91.61
45731;BME280;31440;48.584;13.460;2023-05-02T10:10:55;97202.03;;;15.01;93.96
45731;BME280;31440;48.584;13.460;2023-05-02T10:14:00;97191.72;;;15.70;94.35
45731;BME280;31440;48.584;13.460;2023-05-02T10:17:13;97199.59;;;15.51;91.70
45731;BME280;31440;48.584;13.460;2023-05-02T10:20:22;97195.06;;;15.54;92.98
45731;BME280;31440;48.584;13.460;2023-05-02T10:23:32;97193.34;;;16.07;88.83
45731;BME280;31440;48.584;13.460;2023-05-02T10:26:37;97197.28;;;15.98;90.78
45731;BME280;31440;48.584;13.460;2023-05-02T10:29:43;97195.97;;;15.89;94.43
45731;BME280;31440;48.584;13.460;2023-05-02T10:32:48;97179.63;;;16.19;95.89
45731;BME280;31440;48.584;13.460;2023-05-02T10:35:52;97186.38;;;16.56;91.68
45731;BME280;31440;48.584;13.460;2023-05-02T10:38:57;97183.19;;;16.18;93.58
45731;BME280;31440;48.584;13.460;2023-05-02T10:42:02;97183.94;;;17.01;88.37
45731;BME280;31440;48.584;13.460;2023-05-02T10:48:35;97186.22;;;16.59;85.50
45731;BME280;31440;48.584;13.460;2023-05-02T10:51:41;97178.78;;;16.84;83.70
45731;BME280;31440;48.584;13.460;2023-05-02T10:54:46;97186.97;;;16.94;83.91
45731;BME280;31440;48.584;13.460;2023-05-02T11:05:01;97187.66;;;16.82;83.66
45731;BME280;31440;48.584;13.460;2023-05-02T11:11:42;97195.75;;;16.93;81.98
45731;BME280;31440;48.584;13.460;2023-05-02T11:14:47;97195.00;;;16.58;90.67
45731;BME280;31440;48.584;13.460;2023-05-02T11:18:06;97186.38;;;17.36;80.12
45731;BME280;31440;48.584;13.460;2023-05-02T11:21:27;97190.44;;;17.10;84.24
45731;BME280;31440;48.584;13.460;2023-05-02T11:24:44;97196.88;;;16.56;85.68
45731;BME280;31440;48.584;13.460;2023-05-02T11:27:52;97193.56;;;16.69;81.98
45731;BME280;31440;48.584;13.460;2023-05-02T11:30:57;97194.91;;;16.92;82.53
45731;BME280;31440;48.584;13.460;2023-05-02T11:34:02;97194.34;;;17.03;83.47
45731;BME280;31440;48.584;13.460;2023-05-02T11:37:13;97188.47;;;17.45;81.87
45731;BME280;31440;48.584;13.460;2023-05-02T11:43:26;97189.47;;;17.58;78.23
45731;BME280;31440;48.584;13.460;2023-05-02T11:46:39;97197.56;;;17.24;86.23
45731;BME280;31440;48.584;13.460;2023-05-02T11:49:44;97199.47;;;17.52;80.22
45731;BME280;31440;48.584;13.460;2023-05-02T11:52:49;97194.88;;;17.71;77.13
45731;BME280;31440;48.584;13.460;2023-05-02T11:56:00;97195.50;;;17.60;77.37
45731;BME280;31440;48.584;13.460;2023-05-02T11:59:04;97199.78;;;18.07;71.86
45731;BME280;31440;48.584;13.460;2023-05-02T12:02:09;97198.38;;;17.56;78.92
45731;BME280;31440;48.584;13.460;2023-05-02T12:05:14;97195.50;;;17.90;83.13
45731;BME280;31440;48.584;13.460;2023-05-02T12:08:23;97198.81;;;16.52;81.71
45731;BME280;31440;48.584;13.460;2023-05-02T12:14:34;97198.75;;;18.24;77.59
45731;BME280;31440;48.584;13.460;2023-05-02T12:17:42;97191.63;;;18.26;72.85
45731;BME280;31440;48.584;13.460;2023-05-02T12:20:48;97200.06;;;17.57;77.12
45731;BME280;31440;48.584;13.460;2023-05-02T12:23:53;97207.66;;;18.51;75.01
45731;BME280;31440;48.584;13.460;2023-05-02T12:27:13;97195.00;;;18.14;74.88
45731;BME280;31440;48.584;13.460;2023-05-02T12:30:26;97206.66;;;17.80;74.27
45731;BME280;31440;48.584;13.460;2023-05-02T12:33:44;97203.66;;;17.86;74.30
45731;BME280;31440;48.584;13.460;2023-05-02T12:36:51;97209.50;;;17.61;71.82
45731;BME280;31440;48.584;13.460;2023-05-02T12:39:55;97199.38;;;17.69;76.62
45731;BME280;31440;48.584;13.460;2023-05-02T12:43:02;97206.22;;;17.71;74.40
45731;BME280;31440;48.584;13.460;2023-05-02T12:46:09;97208.34;;;17.81;70.08
45731;BME280;31440;48.584;13.460;2023-05-02T12:49:14;97206.59;;;17.95;70.40
45731;BME280;31440;48.584;13.460;2023-05-02T12:52:49;97206.50;;;17.35;75.94
45731;BME280;31440;48.584;13.460;2023-05-02T12:56:01;97210.84;;;16.89;70.72
45731;BME280;31440;48.584;13.460;2023-05-02T12:59:07;97209.56;;;17.59;72.05
45731;BME280;31440;48.584;13.460;2023-05-02T13:02:11;97203.66;;;17.86;69.83
45731;BME280;31440;48.584;13.460;2023-05-02T13:05:17;97216.28;;;18.09;70.19
45731;BME280;31440;48.584;13.460;2023-05-02T13:08:21;97210.84;;;17.98;74.38
45731;BME280;31440;48.584;13.460;2023-05-02T13:11:26;97204.06;;;17.32;76.80
45731;BME280;31440;48.584;13.460;2023-05-02T13:14:31;97203.25;;;17.78;80.87
45731;BME280;31440;48.584;13.460;2023-05-02T13:17:36;97206.81;;;18.21;76.16
45731;BME280;31440;48.584;13.460;2023-05-02T13:20:40;97203.88;;;18.55;70.33
45731;BME280;31440;48.584;13.460;2023-05-02T13:23:48;97207.59;;;17.31;73.94
45731;BME280;31440;48.584;13.460;2023-05-02T13:26:54;97204.31;;;17.44;78.28
45731;BME280;31440;48.584;13.460;2023-05-02T13:30:02;97210.84;;;17.21;79.83
45731;BME280;31440;48.584;13.460;2023-05-02T13:33:12;97210.13;;;16.70;86.00
45731;BME280;31440;48.584;13.460;2023-05-02T13:36:16;97215.91;;;16.92;89.88
45731;BME280;31440;48.584;13.460;2023-05-02T13:39:21;97220.59;;;15.85;93.06
45731;BME280;31440;48.584;13.460;2023-05-02T13:42:26;97219.25;;;15.59;93.23
45731;BME280;31440;48.584;13.460;2023-05-02T13:45:30;97235.88;;;15.58;97.01
45731;BME280;31440;48.584;13.460;2023-05-02T13:48:35;97247.22;;;14.45;100.00
45731;BME280;31440;48.584;13.460;2023-05-02T13:51:40;97243.34;;;14.14;100.00
45731;BME280;31440;48.584;13.460;2023-05-02T13:54:46;97200.94;;;14.28;100.00
45731;BME280;31440;48.584;13.460;2023-05-02T13:57:50;97235.53;;;14.53;100.00
45731;BME280;31440;48.584;13.460;2023-05-02T14:00:55;97232.78;;;15.86;100.00
45731;BME280;31440;48.584;13.460;2023-05-02T14:04:00;97235.88;;;15.58;100.00
45731;BME280;31440;48.584;13.460;2023-05-02T14:07:10;97239.78;;;15.50;100.00
45731;BME280;31440;48.584;13.460;2023-05-02T14:10:14;97240.03;;;15.62;100.00
45731;BME280;31440;48.584;13.460;2023-05-02T14:13:19;97235.69;;;15.44;100.00
45731;BME280;31440;48.584;13.460;2023-05-02T14:16:24;97229.38;;;15.48;100.00
45731;BME280;31440;48.584;13.460;2023-05-02T14:19:28;97235.59;;;15.28;100.00
45731;BME280;31440;48.584;13.460;2023-05-02T14:22:33;97242.63;;;15.64;100.00
45731;BME280;31440;48.584;13.460;2023-05-02T14:25:37;97235.94;;;15.57;100.00
45731;BME280;31440;48.584;13.460;2023-05-02T14:28:42;97235.28;;;15.16;100.00
45731;BME280;31440;48.584;13.460;2023-05-02T14:31:47;97234.03;;;15.60;100.00
45731;BME280;31440;48.584;13.460;2023-05-02T14:34:51;97226.00;;;15.82;100.00
45731;BME280;31440;48.584;13.460;2023-05-02T14:37:56;97230.41;;;15.99;100.00
45731;BME280;31440;48.584;13.460;2023-05-02T14:41:01;97229.00;;;15.92;100.00
45731;BME280;31440;48.584;13.460;2023-05-02T14:44:06;97234.25;;;16.09;100.00
45731;BME280;31440;48.584;13.460;2023-05-02T14:47:10;97227.25;;;15.92;99.14
45731;BME280;31440;48.584;13.460;2023-05-02T14:50:16;97223.53;;;16.14;100.00
45731;BME280;31440;48.584;13.460;2023-05-02T14:53:20;97228.22;;;16.24;98.99
45731;BME280;31440;48.584;13.460;2023-05-02T14:56:25;97228.22;;;16.24;100.00
45731;BME280;31440;48.584;13.460;2023-05-02T14:59:29;97222.47;;;16.00;98.80
45731;BME280;31440;48.584;13.460;2023-05-02T15:02:35;97220.84;;;15.63;100.00
45731;BME280;31440;48.584;13.460;2023-05-02T15:05:40;97219.75;;;16.02;100.00
45731;BME280;31440;48.584;13.460;2023-05-02T15:08:46;97220.59;;;16.20;100.00
45731;BME280;31440;48.584;13.460;2023-05-02T15:11:52;97220.31;;;16.09;100.00
45731;BME280;31440;48.584;13.460;2023-05-02T15:14:56;97213.47;;;16.39;100.00
45731;BME280;31440;48.584;13.460;2023-05-02T15:21:06;97219.00;;;16.00;100.00
45731;BME280;31440;48.584;13.460;2023-05-02T15:24:11;97220.41;;;14.99;100.00
45731;BME280;31440;48.584;13.460;2023-05-02T15:27:15;97212.75;;;14.94;100.00
45731;BME280;31440;48.584;13.460;2023-05-02T15:30:20;97215.09;;;15.19;100.00
45731;BME280;31440;48.584;13.460;2023-05-02T15:33:27;97209.16;;;15.16;100.00
45731;BME280;31440;48.584;13.460;2023-05-02T15:36:32;97228.72;;;15.26;100.00
45731;BME280;31440;48.584;13.460;2023-05-02T15:39:40;97223.22;;;15.13;100.00
45731;BME280;31440;48.584;13.460;2023-05-02T15:42:44;97229.78;;;15.22;100.00
45731;BME280;31440;48.584;13.460;2023-05-02T15:45:57;97232.97;;;14.72;100.00
45731;BME280;31440;48.584;13.460;2023-05-02T15:49:01;97214.81;;;14.69;100.00
45731;BME280;31440;48.584;13.460;2023-05-02T15:52:06;97241.69;;;15.10;100.00
45731;BME280;31440;48.584;13.460;2023-05-02T15:55:10;97245.50;;;15.03;100.00
45731;BME280;31440;48.584;13.460;2023-05-02T15:58:16;97252.41;;;15.04;100.00
45731;BME280;31440;48.584;13.460;2023-05-02T16:01:20;97260.19;;;14.87;100.00
45731;BME280;31440;48.584;13.460;2023-05-02T16:04:27;97264.28;;;14.33;100.00
45731;BME280;31440;48.584;13.460;2023-05-02T16:07:32;97264.44;;;13.68;100.00
45731;BME280;31440;48.584;13.460;2023-05-02T16:10:37;97271.66;;;14.03;100.00
45731;BME280;31440;48.584;13.460;2023-05-02T16:13:43;97270.78;;;13.82;100.00
45731;BME280;31440;48.584;13.460;2023-05-02T16:16:48;97279.53;;;13.81;100.00
45731;BME280;31440;48.584;13.460;2023-05-02T16:19:53;97279.81;;;14.36;100.00
45731;BME280;31440;48.584;13.460;2023-05-02T16:22:57;97288.53;;;13.94;100.00
45731;BME280;31440;48.584;13.460;2023-05-02T16:26:03;97292.16;;;14.33;100.00
45731;BME280;31440;48.584;13.460;2023-05-02T16:32:13;97309.63;;;14.10;100.00
45731;BME280;31440;48.584;13.460;2023-05-02T16:35:18;97320.16;;;14.29;100.00
45731;BME280;31440;48.584;13.460;2023-05-02T16:38:23;97326.25;;;14.08;100.00
45731;BME280;31440;48.584;13.460;2023-05-02T16:41:27;97331.28;;;13.70;100.00
45731;BME280;31440;48.584;13.460;2023-05-02T16:44:32;97326.09;;;13.90;100.00
45731;BME280;31440;48.584;13.460;2023-05-02T16:47:36;97327.25;;;14.05;100.00
45731;BME280;31440;48.584;13.460;2023-05-02T16:50:41;97323.72;;;14.06;100.00
45731;BME280;31440;48.584;13.460;2023-05-02T16:53:46;97330.78;;;14.04;100.00
45731;BME280;31440;48.584;13.460;2023-05-02T16:56:50;97331.72;;;13.81;100.00
45731;BME280;31440;48.584;13.460;2023-05-02T16:59:55;97329.91;;;13.83;100.00
45731;BME280;31440;48.584;13.460;2023-05-02T17:03:00;97326.72;;;14.39;100.00
45731;BME280;31440;48.584;13.460;2023-05-02T17:06:07;97335.38;;;14.19;100.00
45731;BME280;31440;48.584;13.460;2023-05-02T17:09:12;97331.09;;;14.59;100.00
45731;BME280;31440;48.584;13.460;2023-05-02T17:12:17;97338.50;;;14.48;100.00
45731;BME280;31440;48.584;13.460;2023-05-02T17:15:25;97344.19;;;13.73;100.00
45731;BME280;31440;48.584;13.460;2023-05-02T17:18:30;97345.50;;;13.85;100.00
45731;BME280;31440;48.584;13.460;2023-05-02T17:21:34;97345.22;;;13.47;100.00
45731;BME280;31440;48.584;13.460;2023-05-02T17:24:40;97347.22;;;13.41;100.00
45731;BME280;31440;48.584;13.460;2023-05-02T17:27:46;97329.00;;;12.93;100.00